Time;durP1;ratioP1;P1;durP2;ratioP2;P2;SDS_P1;SDS_P2;PMS_P1;PMS_P2;Temp;Humidity;BMP_temperature;BMP_pressure;BME280_temperature;BME280_humidity;BME280_pressure;Samples;Min_cycle;Max_cycle;Signal;HPM_P1;HPM_P2
2022/07/20 00:01:19;;;;;;;8.03;7.63;;;;;;;17.22;60.59;93445.69;5078020;28;20290;-69
2022/07/20 00:03:45;;;;;;;8.33;7.93;;;;;;;16.96;60.48;93405.13;5076643;28;20221;-70
2022/07/20 00:06:12;;;;;;;9.43;8.87;;;;;;;16.99;60.74;93433.56;5063604;28;20224;-69
2022/07/20 00:11:21;;;;;;;11.37;8.33;;;;;;;16.97;62.11;93435.69;5080661;28;20224;-70
2022/07/20 00:13:58;;;;;;;8.93;8.13;;;;;;;17.01;62.60;93426.09;5062260;28;20193;-69
2022/07/20 00:16:25;;;;;;;8.73;8.23;;;;;;;16.98;63.34;93428.56;5079752;28;20254;-69
2022/07/20 00:18:51;;;;;;;8.93;8.53;;;;;;;16.63;63.34;93411.66;5080195;28;20190;-70
2022/07/20 00:21:16;;;;;;;9.13;8.63;;;;;;;16.63;63.26;93414.28;5079625;28;20311;-69
2022/07/20 00:23:42;;;;;;;9.03;8.53;;;;;;;16.74;63.52;93422.75;5080596;28;20211;-69
2022/07/20 00:26:08;;;;;;;8.57;8.07;;;;;;;16.65;64.16;93417.41;5077983;28;20289;-70
2022/07/20 00:28:33;;;;;;;8.80;8.23;;;;;;;16.62;64.08;93411.94;5079083;28;20184;-70
2022/07/20 00:30:59;;;;;;;8.97;8.27;;;;;;;16.49;64.11;93407.44;5078244;28;21010;-69
2022/07/20 00:33:24;;;;;;;8.13;7.63;;;;;;;16.52;63.96;93391.84;5080883;28;20194;-70
2022/07/20 00:35:50;;;;;;;9.63;9.13;;;;;;;16.39;64.48;93379.41;5078829;28;20236;-69
2022/07/20 00:38:15;;;;;;;9.47;8.87;;;;;;;16.57;64.44;93404.91;5076780;28;20182;-70
2022/07/20 00:40:41;;;;;;;9.13;8.53;;;;;;;16.50;64.46;93398.50;5076556;28;20189;-69
2022/07/20 00:43:06;;;;;;;8.90;8.50;;;;;;;16.47;64.75;93410.38;5075689;28;20197;-70
2022/07/20 00:45:32;;;;;;;8.70;8.30;;;;;;;16.25;65.49;93398.97;5077544;28;20702;-69
2022/07/20 00:47:58;;;;;;;9.03;8.63;;;;;;;16.35;65.28;93411.94;5078901;28;20235;-69
2022/07/20 00:50:23;;;;;;;8.43;7.93;;;;;;;16.37;65.38;93409.78;5076766;28;20213;-70
2022/07/20 00:52:49;;;;;;;8.30;7.90;;;;;;;16.08;65.48;93382.97;5079501;28;20233;-70
2022/07/20 00:55:14;;;;;;;9.03;8.50;;;;;;;16.32;65.94;93412.50;5079082;28;20185;-70
2022/07/20 00:57:39;;;;;;;8.77;8.27;;;;;;;16.39;64.78;93418.94;5079064;28;20225;-69
2022/07/20 01:00:07;;;;;;;8.17;7.77;;;;;;;16.39;64.44;93413.69;5075922;28;20201;-69
2022/07/20 01:02:33;;;;;;;8.90;8.40;;;;;;;16.30;65.65;93419.91;5059597;28;20225;-70
2022/07/20 01:04:59;;;;;;;8.57;8.00;;;;;;;16.38;64.43;93420.03;5077586;28;20185;-70
2022/07/20 01:07:24;;;;;;;9.47;8.87;;;;;;;16.27;65.73;93423.94;5076909;28;20520;-69
2022/07/20 01:09:50;;;;;;;9.43;8.73;;;;;;;16.26;65.28;93416.31;5080117;28;20189;-70
2022/07/20 01:12:16;;;;;;;8.03;7.63;;;;;;;16.14;65.35;93414.16;5079457;28;20209;-69
2022/07/20 01:14:42;;;;;;;9.27;8.77;;;;;;;16.24;67.16;93413.97;5078912;28;20184;-70
2022/07/20 01:17:08;;;;;;;10.03;9.17;;;;;;;16.11;66.79;93409.47;5079106;28;20233;-68
2022/07/20 01:19:33;;;;;;;9.07;8.47;;;;;;;16.17;66.79;93412.81;5061538;28;20212;-69
2022/07/20 01:21:59;;;;;;;9.57;8.97;;;;;;;16.18;66.77;93407.25;5077062;28;20233;-70
2022/07/20 01:24:24;;;;;;;9.97;9.27;;;;;;;16.10;66.83;93405.28;5078711;28;20186;-70
2022/07/20 01:26:49;;;;;;;10.00;9.30;;;;;;;16.13;66.90;93402.06;5076485;28;20697;-70
2022/07/20 01:29:15;;;;;;;10.43;9.67;;;;;;;15.93;67.22;93384.81;5078611;28;20192;-69
2022/07/20 01:31:41;;;;;;;9.33;8.73;;;;;;;16.04;67.49;93403.84;5073325;28;20213;-69
2022/07/20 01:34:07;;;;;;;9.63;8.83;;;;;;;15.96;67.73;93400.03;5078442;28;20194;-70
2022/07/20 01:36:32;;;;;;;8.93;8.43;;;;;;;15.79;68.69;93401.66;5079044;28;20220;-69
2022/07/20 01:38:58;;;;;;;9.87;9.27;;;;;;;15.57;70.00;93401.50;5079927;28;20193;-69
2022/07/20 01:41:23;;;;;;;8.67;8.07;;;;;;;15.54;70.33;93400.25;5078477;28;20213;-70
2022/07/20 01:43:49;;;;;;;10.07;9.47;;;;;;;15.66;70.51;93405.03;5076118;28;20185;-69
2022/07/20 01:46:14;;;;;;;9.40;8.80;;;;;;;15.70;69.42;93395.50;5078342;28;20229;-70
2022/07/20 01:48:40;;;;;;;9.13;8.50;;;;;;;15.76;68.81;93404.88;5077794;28;20215;-69
2022/07/20 01:51:06;;;;;;;10.33;9.73;;;;;;;15.66;69.61;93400.56;5077519;28;20229;-69
2022/07/20 01:53:31;;;;;;;9.30;8.67;;;;;;;15.64;69.27;93412.47;5080506;28;20193;-69
2022/07/20 01:55:56;;;;;;;9.93;9.37;;;;;;;15.76;68.69;93407.50;5076047;28;20225;-69
2022/07/20 01:58:22;;;;;;;10.30;9.60;;;;;;;15.71;69.13;93403.13;5078496;28;20253;-70
2022/07/20 02:00:48;;;;;;;11.03;10.00;;;;;;;15.64;69.33;93405.31;5078480;28;20229;-70
2022/07/20 02:03:14;;;;;;;9.13;8.53;;;;;;;15.59;68.97;93408.06;5083298;28;20288;-69
2022/07/20 02:05:39;;;;;;;10.10;9.50;;;;;;;15.47;70.20;93406.97;5082094;28;20181;-70
2022/07/20 02:08:05;;;;;;;12.57;9.33;;;;;;;15.45;69.86;93414.34;5082489;28;20216;-69
2022/07/20 02:10:31;;;;;;;10.20;9.40;;;;;;;15.46;70.63;93416.69;5081344;28;20216;-70
2022/07/20 02:12:56;;;;;;;10.20;9.27;;;;;;;15.43;70.26;93416.50;5081761;28;20190;-70
2022/07/20 02:18:08;;;;;;;9.53;8.83;;;;;;;15.24;70.94;93416.50;5079030;28;20219;-69
2022/07/20 02:20:34;;;;;;;10.10;9.50;;;;;;;15.40;70.87;93425.75;5081049;28;20193;-70
2022/07/20 02:23:01;;;;;;;9.60;8.90;;;;;;;15.27;71.13;93423.03;5080649;28;20185;-69
2022/07/20 02:25:26;;;;;;;10.47;9.77;;;;;;;15.29;70.66;93415.63;5080972;28;20181;-72
2022/07/20 02:27:52;;;;;;;10.40;9.47;;;;;;;15.24;69.99;93405.19;5081321;28;20235;-69
2022/07/20 02:30:17;;;;;;;9.60;9.00;;;;;;;15.29;71.97;93420.88;5082835;28;20191;-69
2022/07/20 02:32:43;;;;;;;9.63;9.13;;;;;;;15.33;71.04;93422.66;5079816;28;20213;-69
2022/07/20 02:35:08;;;;;;;9.97;9.17;;;;;;;15.25;71.42;93425.19;5080789;28;20193;-70
2022/07/20 02:37:34;;;;;;;11.03;10.03;;;;;;;15.12;71.83;93423.25;5079485;28;20217;-69
2022/07/20 02:39:59;;;;;;;10.47;9.73;;;;;;;15.05;72.41;93426.25;5080585;28;20205;-69
2022/07/20 02:42:24;;;;;;;9.83;9.07;;;;;;;15.05;71.96;93422.84;5079948;28;20753;-69
2022/07/20 02:44:50;;;;;;;11.37;10.33;;;;;;;15.07;71.53;93404.91;5082265;28;20188;-70
2022/07/20 02:47:15;;;;;;;10.23;9.63;;;;;;;15.06;71.29;93412.03;5080185;28;20248;-69
2022/07/20 02:49:40;;;;;;;9.97;9.07;;;;;;;14.91;72.05;93408.84;5081802;28;21013;-69
2022/07/20 02:52:06;;;;;;;9.77;9.27;;;;;;;15.00;71.87;93412.41;5081015;28;20233;-70
2022/07/20 02:54:31;;;;;;;9.27;8.40;;;;;;;14.90;72.70;93420.41;5064129;28;20182;-69
2022/07/20 02:56:57;;;;;;;9.70;9.10;;;;;;;14.95;72.82;93421.16;5082212;28;20262;-69
2022/07/20 02:59:22;;;;;;;9.07;8.57;;;;;;;14.98;72.55;93430.31;5080171;28;20212;-69
2022/07/20 03:01:47;;;;;;;9.47;8.77;;;;;;;14.84;72.15;93430.25;5081156;28;20247;-69
2022/07/20 03:04:13;;;;;;;9.93;9.33;;;;;;;14.91;71.94;93443.03;5079904;28;20237;-69
2022/07/20 03:06:38;;;;;;;10.67;9.70;;;;;;;14.79;72.13;93442.66;5079948;28;20236;-69
2022/07/20 03:09:03;;;;;;;10.53;9.67;;;;;;;14.87;71.57;93449.91;5080880;28;20734;-69
2022/07/20 03:11:29;;;;;;;9.90;9.30;;;;;;;14.91;72.03;93440.41;5079741;28;20233;-69
2022/07/20 03:13:54;;;;;;;9.57;8.77;;;;;;;15.11;71.51;93442.75;5079950;28;20723;-69
2022/07/20 03:16:20;;;;;;;9.37;8.67;;;;;;;15.41;70.56;93439.69;5079412;28;20229;-69
2022/07/20 03:18:45;;;;;;;10.23;9.47;;;;;;;16.01;68.32;93443.94;5080425;28;20743;-70
2022/07/20 03:21:10;;;;;;;11.00;10.20;;;;;;;16.38;66.93;93430.56;5078387;28;20229;-70
2022/07/20 03:23:36;;;;;;;10.97;10.17;;;;;;;16.83;65.63;93439.44;5080695;28;20185;-69
2022/07/20 03:26:01;;;;;;;9.13;8.67;;;;;;;17.03;64.59;93434.50;5062150;28;20277;-69
2022/07/20 03:28:27;;;;;;;9.20;8.67;;;;;;;16.92;64.77;93448.19;5080100;28;20188;-70
2022/07/20 03:30:52;;;;;;;8.90;8.37;;;;;;;17.00;64.67;93450.94;5079182;28;20293;-69
2022/07/20 03:33:17;;;;;;;10.20;9.67;;;;;;;17.19;63.64;93453.41;5078422;28;20184;-69
2022/07/20 03:35:43;;;;;;;10.27;9.30;;;;;;;17.17;63.55;93466.91;5077478;28;20178;-70
2022/07/20 03:38:08;;;;;;;10.10;9.40;;;;;;;16.70;65.62;93456.84;5080822;28;20253;-69
2022/07/20 03:40:33;;;;;;;9.73;9.13;;;;;;;16.74;65.90;93460.47;5082892;28;20215;-69
2022/07/20 03:42:59;;;;;;;10.33;9.43;;;;;;;17.81;61.93;93471.00;5081326;28;20203;-69
2022/07/20 03:45:24;;;;;;;9.97;9.17;;;;;;;17.98;61.26;93462.41;5078300;28;20190;-70
2022/07/20 03:47:49;;;;;;;8.83;8.40;;;;;;;17.41;62.85;93443.69;5077083;28;20244;-70
2022/07/20 03:50:15;;;;;;;10.17;9.37;;;;;;;17.14;64.67;93472.00;5082332;28;20181;-69
2022/07/20 03:52:40;;;;;;;10.40;9.50;;;;;;;17.12;64.88;93474.94;5080453;28;20214;-69
2022/07/20 03:55:06;;;;;;;9.93;9.33;;;;;;;17.78;62.83;93471.59;5062622;28;20406;-69
2022/07/20 03:57:31;;;;;;;9.47;8.77;;;;;;;17.84;62.20;93469.63;5078100;28;21084;-69
2022/07/20 03:59:57;;;;;;;10.40;9.40;;;;;;;17.63;63.04;93472.75;5079872;28;20203;-70
2022/07/20 04:02:22;;;;;;;9.87;8.93;;;;;;;17.27;61.91;93458.00;5075910;28;20229;-69
2022/07/20 04:04:48;;;;;;;10.37;9.40;;;;;;;17.52;62.81;93452.16;5080939;28;20196;-69
2022/07/20 04:07:13;;;;;;;9.33;8.57;;;;;;;17.36;64.71;93462.28;5079049;28;20228;-70
2022/07/20 04:09:44;;;;;;;9.67;9.03;;;;;;;17.85;62.64;93468.53;5082367;28;20188;-69
2022/07/20 04:12:16;;;;;;;9.97;9.33;;;;;;;17.80;62.46;93474.72;5077783;28;20221;-69
2022/07/20 04:14:44;;;;;;;10.23;9.43;;;;;;;17.70;61.77;93469.69;5082246;28;20185;-69
2022/07/20 04:17:09;;;;;;;9.73;9.13;;;;;;;17.52;64.07;93468.00;5079657;28;20226;-71
2022/07/20 04:19:35;;;;;;;8.93;8.33;;;;;;;17.43;64.00;93473.19;5081202;28;20193;-69
2022/07/20 04:22:01;;;;;;;9.30;8.53;;;;;;;17.44;63.68;93466.88;5077785;28;20227;-69
2022/07/20 04:24:27;;;;;;;8.97;8.47;;;;;;;17.34;65.07;93461.78;5078976;28;20197;-69
2022/07/20 04:26:52;;;;;;;9.87;9.17;;;;;;;17.46;64.92;93469.97;5077770;28;20228;-68
2022/07/20 04:29:18;;;;;;;10.53;9.73;;;;;;;17.70;64.21;93474.22;5080787;28;20196;-69
2022/07/20 04:31:44;;;;;;;10.87;9.87;;;;;;;18.07;61.15;93453.44;5075683;28;20252;-69
2022/07/20 04:34:09;;;;;;;9.87;9.27;;;;;;;18.42;58.90;93467.63;5078374;28;20212;-69
2022/07/20 04:36:35;;;;;;;9.90;9.13;;;;;;;17.95;59.55;93481.50;5080955;28;20233;-70
2022/07/20 04:39:00;;;;;;;10.73;9.77;;;;;;;17.93;61.71;93478.38;5077579;28;20178;-70
2022/07/20 04:41:25;;;;;;;9.00;8.40;;;;;;;17.95;60.58;93481.50;5078308;28;20213;-69
2022/07/20 04:43:51;;;;;;;9.60;9.00;;;;;;;17.95;59.84;93476.22;5081279;28;20180;-69
2022/07/20 04:46:16;;;;;;;10.63;9.73;;;;;;;17.87;61.18;93485.66;5076466;28;20220;-69
2022/07/20 04:48:42;;;;;;;9.30;8.60;;;;;;;17.63;61.14;93483.31;5078369;28;20195;-69
2022/07/20 04:51:07;;;;;;;9.33;8.77;;;;;;;18.04;60.89;93487.63;5078507;28;20225;-69
2022/07/20 04:53:32;;;;;;;10.07;9.47;;;;;;;18.34;59.33;93484.97;5080641;28;20734;-68
2022/07/20 04:55:58;;;;;;;10.13;9.37;;;;;;;18.34;59.35;93497.41;5078004;28;20237;-70
2022/07/20 04:58:23;;;;;;;9.67;9.07;;;;;;;17.65;61.12;93487.53;5061791;28;20185;-70
2022/07/20 05:00:48;;;;;;;10.97;10.07;;;;;;;17.84;61.03;93501.34;5078802;28;20233;-70
2022/07/20 05:03:14;;;;;;;9.90;9.20;;;;;;;18.18;59.81;93502.31;5079632;28;20240;-70
2022/07/20 05:05:39;;;;;;;11.37;9.83;;;;;;;18.32;58.55;93499.59;5076726;28;20197;-70
2022/07/20 05:08:04;;;;;;;9.60;8.93;;;;;;;18.42;57.82;93497.50;5081367;28;20239;-69
2022/07/20 05:10:30;;;;;;;9.37;8.50;;;;;;;18.45;59.72;93502.16;5077824;28;20181;-71
2022/07/20 05:12:55;;;;;;;9.43;8.53;;;;;;;18.55;58.26;93486.00;5077433;28;20218;-69
2022/07/20 05:15:23;;;;;;;9.43;8.87;;;;;;;18.74;57.33;93502.44;5080095;28;20188;-69
2022/07/20 05:17:49;;;;;;;9.83;9.00;;;;;;;18.86;56.21;93507.16;5079249;28;20231;-69
2022/07/20 05:20:15;;;;;;;10.63;9.73;;;;;;;18.86;57.18;93507.91;5076476;28;20221;-69
2022/07/20 05:22:40;;;;;;;13.87;9.70;;;;;;;19.00;56.89;93502.50;5062086;28;20221;-70
2022/07/20 05:25:06;;;;;;;10.33;9.37;;;;;;;19.18;56.14;93514.69;5078628;28;20209;-69
2022/07/20 05:27:31;;;;;;;9.80;9.20;;;;;;;19.05;56.21;93512.97;5078913;28;20791;-70
2022/07/20 05:29:57;;;;;;;9.97;9.17;;;;;;;18.97;56.55;93516.38;5079115;28;20181;-69
2022/07/20 05:32:22;;;;;;;9.73;8.70;;;;;;;18.97;56.08;93513.72;5078941;28;20233;-69
2022/07/20 05:34:47;;;;;;;10.67;9.97;;;;;;;19.39;55.35;93514.91;5077613;28;20269;-70
2022/07/20 05:37:13;;;;;;;11.27;10.10;;;;;;;20.35;52.84;93516.91;5084904;28;20230;-70
2022/07/20 05:39:38;;;;;;;10.50;9.60;;;;;;;20.54;51.75;93509.38;5080872;28;21743;-70
2022/07/20 05:42:04;;;;;;;13.60;10.47;;;;;;;20.90;51.22;93527.50;5080287;28;20225;-69
2022/07/20 05:44:29;;;;;;;10.20;9.27;;;;;;;20.81;51.66;93521.41;5082949;28;20191;-70
2022/07/20 05:46:54;;;;;;;11.57;9.27;;;;;;;20.85;51.26;93503.75;5081125;28;20661;-70
2022/07/20 05:49:20;;;;;;;9.63;8.93;;;;;;;22.60;47.33;93514.81;5082829;28;21005;-70
2022/07/20 05:51:45;;;;;;;9.90;8.90;;;;;;;22.02;48.41;93515.06;5080578;28;20224;-70
2022/07/20 05:54:11;;;;;;;11.75;9.27;;;;;;;25.51;40.50;93529.56;5081934;28;20180;-70
2022/07/20 05:56:36;;;;;;;9.50;8.80;;;;;;;30.42;31.61;93535.50;5062981;28;20248;-69
2022/07/20 05:59:01;;;;;;;10.23;7.85;;;;;;;33.11;26.95;93551.91;5080660;28;20203;-70
2022/07/20 06:01:27;;;;;;;9.07;8.07;;;;;;;33.98;24.69;93545.03;5081896;28;20232;-71
2022/07/20 06:03:52;;;;;;;7.60;7.05;;;;;;;36.84;21.44;93570.31;5080239;28;20243;-70
2022/07/20 06:06:17;;;;;;;10.73;7.65;;;;;;;36.56;21.68;93565.41;5081944;28;20228;-70
2022/07/20 06:08:43;;;;;;;7.75;6.95;;;;;;;35.87;22.14;93557.31;5079741;28;20174;-70
2022/07/20 06:11:08;;;;;;;8.27;7.78;;;;;;;34.64;24.69;93559.81;5081323;28;20224;-70
2022/07/20 06:13:34;;;;;;;7.88;7.38;;;;;;;34.86;23.68;93563.03;5082223;28;20209;-68
2022/07/20 06:15:59;;;;;;;7.85;7.10;;;;;;;35.16;22.75;93560.34;5079984;28;20264;-70
2022/07/20 06:18:25;;;;;;;7.88;7.28;;;;;;;33.31;25.26;93566.47;5081448;28;20415;-70
2022/07/20 06:20:50;;;;;;;8.73;7.47;;;;;;;33.60;25.18;93565.88;5080451;28;20242;-70
2022/07/20 06:23:15;;;;;;;7.65;7.07;;;;;;;33.01;26.29;93572.44;5064467;28;20224;-69
2022/07/20 06:25:41;;;;;;;7.93;7.00;;;;;;;35.71;22.56;93573.50;5081579;28;20193;-70
2022/07/20 06:28:07;;;;;;;8.93;7.72;;;;;;;36.99;20.44;93585.94;5081757;28;20213;-70
2022/07/20 06:30:32;;;;;;;10.70;7.15;;;;;;;37.87;20.38;93581.22;5081071;28;20214;-71
2022/07/20 06:32:58;;;;;;;8.70;6.88;;;;;;;38.20;19.56;93579.25;5079360;28;20254;-70
2022/07/20 06:35:23;;;;;;;9.25;6.68;;;;;;;38.25;19.69;93574.06;5079492;28;20182;-70
2022/07/20 06:37:49;;;;;;;8.10;6.68;;;;;;;35.25;22.30;93555.94;5083081;28;20228;-71
2022/07/20 06:40:15;;;;;;;6.90;6.40;;;;;;;35.99;21.76;93559.47;5081131;28;20216;-71
2022/07/20 06:42:40;;;;;;;7.10;6.50;;;;;;;34.77;23.41;93558.13;5079689;28;20601;-71
2022/07/20 06:45:06;;;;;;;8.25;6.65;;;;;;;33.41;24.84;93541.25;5063341;28;20190;-70
2022/07/20 06:47:32;;;;;;;8.13;6.60;;;;;;;34.43;23.38;93548.47;5080895;28;20217;-71
2022/07/20 06:49:58;;;;;;;8.43;7.63;;;;;;;29.90;30.17;93527.91;5080864;28;20232;-70
2022/07/20 06:52:23;;;;;;;12.07;8.20;;;;;;;26.00;35.52;93526.06;5078492;28;20236;-70
2022/07/20 06:54:48;;;;;;;9.77;9.02;;;;;;;25.87;37.30;93516.56;5079061;28;20194;-71
2022/07/20 06:57:14;;;;;;;9.45;8.57;;;;;;;24.35;40.42;93508.72;5081237;28;20235;-71
2022/07/20 06:59:40;;;;;;;8.52;7.85;;;;;;;23.89;42.06;93524.53;5078053;28;20256;-70
2022/07/20 07:02:06;;;;;;;9.15;7.93;;;;;;;23.34;43.13;93485.22;5081156;28;20229;-70
2022/07/20 07:04:32;;;;;;;10.48;8.52;;;;;;;23.57;43.93;93521.72;5081764;28;20199;-69
2022/07/20 07:06:58;;;;;;;8.73;8.13;;;;;;;23.85;42.11;93504.97;5080075;28;20285;-70
2022/07/20 07:09:24;;;;;;;12.80;9.10;;;;;;;22.58;46.10;93519.69;5080093;28;20206;-70
2022/07/20 07:11:50;;;;;;;13.63;8.88;;;;;;;23.39;45.06;93517.00;5079148;28;20235;-69
2022/07/20 07:14:15;;;;;;;10.68;8.15;;;;;;;23.30;46.05;93501.09;5081769;28;20185;-70
2022/07/20 07:16:40;;;;;;;9.98;8.63;;;;;;;23.97;43.94;93513.00;5080829;28;20228;-70
2022/07/20 07:19:06;;;;;;;8.45;7.85;;;;;;;23.59;44.71;93508.06;5081506;28;20178;-70
2022/07/20 07:21:32;;;;;;;15.43;8.82;;;;;;;23.61;44.86;93509.25;5078837;28;20238;-70
2022/07/20 07:23:57;;;;;;;9.40;8.52;;;;;;;23.27;45.03;93512.44;5081835;28;20190;-70
2022/07/20 07:26:23;;;;;;;8.63;7.90;;;;;;;23.94;43.97;93497.63;5078659;28;20231;-70
2022/07/20 07:28:49;;;;;;;11.52;8.85;;;;;;;23.57;45.21;93516.41;5081164;28;20327;-69
2022/07/20 07:31:16;;;;;;;9.30;8.02;;;;;;;23.91;46.02;93519.66;5076807;28;20231;-70
2022/07/20 07:33:41;;;;;;;9.85;9.05;;;;;;;24.42;42.79;93513.47;5081585;28;20171;-70
2022/07/20 07:36:07;;;;;;;15.48;8.15;;;;;;;23.70;44.27;93507.25;5080943;28;20228;-70
2022/07/20 07:38:33;;;;;;;9.63;7.82;;;;;;;23.93;45.17;93517.41;5081723;28;20179;-70
2022/07/20 07:40:58;;;;;;;9.52;8.68;;;;;;;24.30;43.56;93510.84;5078611;28;20236;-70
2022/07/20 07:43:24;;;;;;;10.70;7.95;;;;;;;24.08;43.99;93503.38;5082581;28;20214;-70
2022/07/20 07:45:49;;;;;;;9.10;8.25;;;;;;;24.10;40.90;93511.81;5079014;28;20246;-70
2022/07/20 07:48:14;;;;;;;8.63;7.95;;;;;;;24.20;42.30;93517.47;5081571;28;20237;-70
2022/07/20 07:50:42;;;;;;;9.38;8.60;;;;;;;24.20;41.83;93520.13;5078874;28;20199;-71
2022/07/20 07:53:08;;;;;;;8.32;7.53;;;;;;;24.55;39.93;93513.03;5077793;28;20200;-70
2022/07/20 07:55:34;;;;;;;8.45;7.65;;;;;;;24.11;41.17;93502.72;5081098;28;20185;-70
2022/07/20 07:58:00;;;;;;;8.45;7.80;;;;;;;24.32;41.93;93513.94;5080130;28;20199;-70
2022/07/20 08:00:25;;;;;;;9.45;8.73;;;;;;;24.37;42.52;93495.81;5078917;28;20184;-70
2022/07/20 08:02:51;;;;;;;8.55;7.32;;;;;;;24.98;39.45;93504.22;5080943;28;20242;-70
2022/07/20 08:05:16;;;;;;;8.65;7.97;;;;;;;24.89;38.09;93503.59;5079740;28;20195;-70
2022/07/20 08:07:42;;;;;;;10.13;7.90;;;;;;;24.62;37.84;93513.22;5080139;28;20243;-70
2022/07/20 08:10:08;;;;;;;7.88;7.38;;;;;;;24.68;36.22;93493.19;5078253;28;20180;-69
2022/07/20 08:12:34;;;;;;;8.15;7.60;;;;;;;24.53;36.42;93504.59;5079273;28;20218;-69
2022/07/20 08:15:00;;;;;;;8.48;7.95;;;;;;;24.43;37.29;93498.97;5078763;28;20185;-70
2022/07/20 08:17:25;;;;;;;8.23;7.50;;;;;;;24.65;38.23;93490.41;5082393;28;20215;-70
2022/07/20 08:19:51;;;;;;;8.80;8.15;;;;;;;24.98;37.94;93501.56;5079528;28;20212;-69
2022/07/20 08:22:16;;;;;;;7.32;6.70;;;;;;;25.12;37.22;93499.22;5079561;28;20284;-70
2022/07/20 08:24:42;;;;;;;8.80;8.20;;;;;;;25.32;35.32;93498.16;5079766;28;20186;-70
2022/07/20 08:27:07;;;;;;;7.82;7.32;;;;;;;25.43;36.18;93504.56;5079829;28;20253;-70
2022/07/20 08:29:33;;;;;;;7.13;6.65;;;;;;;25.57;35.93;93488.81;5079225;28;20219;-70
2022/07/20 08:31:58;;;;;;;7.05;6.30;;;;;;;25.92;34.67;93508.28;5076369;28;20239;-70
2022/07/20 08:34:23;;;;;;;6.75;6.45;;;;;;;26.08;34.14;93511.69;5077190;28;20190;-71
2022/07/20 08:36:49;;;;;;;7.03;6.72;;;;;;;26.18;35.17;93502.34;5078922;28;20227;-70
2022/07/20 08:39:15;;;;;;;9.18;6.85;;;;;;;26.08;33.22;93489.50;5079612;28;20185;-70
2022/07/20 08:41:41;;;;;;;7.47;7.07;;;;;;;26.21;31.89;93506.97;5079424;28;20220;-71
2022/07/20 08:44:06;;;;;;;7.53;6.75;;;;;;;26.21;34.35;93504.31;5081592;28;20230;-71
2022/07/20 08:46:34;;;;;;;7.20;6.80;;;;;;;26.34;32.34;93501.09;5075615;28;20221;-70
2022/07/20 08:49:01;;;;;;;7.38;6.97;;;;;;;26.27;32.43;93497.53;5079429;28;20193;-70
2022/07/20 08:51:27;;;;;;;7.18;6.68;;;;;;;26.19;32.56;93499.31;5080374;28;20232;-70
2022/07/20 08:53:55;;;;;;;7.70;7.20;;;;;;;26.08;33.20;93497.53;5073866;28;20208;-69
2022/07/20 08:56:21;;;;;;;7.60;7.10;;;;;;;26.14;33.22;93502.25;5076897;28;20229;-70
2022/07/20 08:58:46;;;;;;;7.63;7.00;;;;;;;26.11;33.83;93492.25;5081950;28;20243;-70
2022/07/20 09:01:16;;;;;;;8.38;7.72;;;;;;;26.23;31.84;93502.03;5078592;28;20236;-69
2022/07/20 09:03:44;;;;;;;7.28;6.75;;;;;;;25.98;32.84;93493.47;5079715;28;20266;-70
2022/07/20 09:06:10;;;;;;;6.75;6.30;;;;;;;25.91;33.07;93487.22;5079199;28;20229;-70
2022/07/20 09:08:59;;;;;;;7.28;6.80;;;;;;;25.90;32.06;93491.03;5075750;28;20193;-70
2022/07/20 09:11:25;;;;;;;6.85;6.18;;;;;;;25.71;32.08;93480.31;5081645;28;20258;-71
2022/07/20 09:13:50;;;;;;;6.13;5.82;;;;;;;25.53;32.27;93487.94;5084867;28;20193;-70
2022/07/20 09:16:30;;;;;;;7.75;7.10;;;;;;;25.96;32.30;93487.69;5083970;28;20236;-70
2022/07/20 09:18:55;;;;;;;7.38;6.97;;;;;;;26.05;32.30;93493.66;5085162;28;20226;-70
2022/07/20 09:21:29;;;;;;;7.97;7.47;;;;;;;25.83;31.48;93486.31;5087131;28;20234;-70
2022/07/20 09:23:56;;;;;;;6.13;5.80;;;;;;;25.68;33.52;93478.34;5084679;28;20213;-70
2022/07/20 09:26:24;;;;;;;7.80;7.30;;;;;;;25.93;32.95;93479.63;5083052;28;20251;-69
2022/07/20 09:28:49;;;;;;;7.18;6.72;;;;;;;26.15;32.61;93487.72;5085114;28;20196;-70
2022/07/20 09:31:15;;;;;;;6.47;6.18;;;;;;;26.10;30.97;93484.56;5085418;28;20230;-70
2022/07/20 09:34:13;;;;;;;8.32;7.57;;;;;;;25.86;31.01;93482.13;5084402;28;20188;-69
2022/07/20 09:36:46;;;;;;;8.40;6.53;;;;;;;25.93;31.69;93477.69;5083170;28;20228;-71
2022/07/20 09:39:20;;;;;;;8.20;7.32;;;;;;;26.16;31.63;93477.81;5083161;28;20193;-70
2022/07/20 09:41:56;;;;;;;8.10;7.55;;;;;;;26.01;32.03;93476.75;5084040;28;20365;-70
2022/07/20 09:44:25;;;;;;;7.55;7.07;;;;;;;26.04;30.96;93481.41;5066132;28;20609;-70
2022/07/20 09:46:51;;;;;;;7.50;6.90;;;;;;;25.85;31.62;93451.94;5084266;28;20213;-70
2022/07/20 09:49:16;;;;;;;7.47;7.07;;;;;;;25.88;31.93;93456.59;5084618;28;20191;-70
2022/07/20 09:51:44;;;;;;;6.63;6.32;;;;;;;26.02;30.52;93467.59;5083010;28;20217;-70
2022/07/20 09:54:12;;;;;;;7.60;7.07;;;;;;;25.97;31.57;93464.41;5066973;28;20192;-69
2022/07/20 09:56:40;;;;;;;6.72;6.32;;;;;;;26.04;31.97;93449.28;5065833;28;20239;-70
2022/07/20 09:59:08;;;;;;;7.50;6.97;;;;;;;26.57;30.85;93472.44;5085255;28;20180;-70
2022/07/20 10:01:35;;;;;;;6.88;6.38;;;;;;;26.68;29.71;93462.72;5086781;28;20224;-70
2022/07/20 10:04:04;;;;;;;6.50;6.20;;;;;;;26.53;30.91;93466.25;5085958;28;20259;-70
2022/07/20 10:06:30;;;;;;;7.25;6.85;;;;;;;26.61;30.93;93470.63;5066760;28;20228;-70
2022/07/20 10:08:56;;;;;;;7.47;7.00;;;;;;;26.68;29.93;93460.03;5082946;28;20185;-70
2022/07/20 10:11:24;;;;;;;6.97;6.57;;;;;;;26.84;30.58;93453.75;5084057;28;20244;-70
2022/07/20 10:13:52;;;;;;;7.05;6.65;;;;;;;26.90;30.77;93455.03;5083842;28;20185;-71
2022/07/20 10:16:20;;;;;;;7.00;6.65;;;;;;;26.77;30.51;93453.66;5082478;28;20270;-70
2022/07/20 10:18:47;;;;;;;6.55;6.25;;;;;;;26.70;31.85;93448.97;5082648;28;20178;-70
2022/07/20 10:21:33;;;;;;;7.40;6.90;;;;;;;26.83;31.74;93447.66;5086266;28;20252;-70
2022/07/20 10:24:17;;;;;;;6.80;6.47;;;;;;;26.76;30.88;93452.13;5081911;28;20196;-70
2022/07/20 10:26:44;;;;;;;7.55;7.15;;;;;;;26.93;30.88;93446.28;5079240;28;20249;-70
2022/07/20 10:29:09;;;;;;;7.40;6.90;;;;;;;26.79;32.12;93435.34;5084381;28;20181;-70
2022/07/20 10:31:56;;;;;;;5.97;5.78;;;;;;;27.04;28.55;93434.56;5063012;28;20217;-70
2022/07/20 10:34:42;;;;;;;6.70;6.40;;;;;;;26.89;29.65;93440.84;5079867;28;20192;-70
2022/07/20 10:37:29;;;;;;;7.25;6.60;;;;;;;26.90;31.15;93438.97;5083972;28;20220;-70
2022/07/20 10:39:57;;;;;;;6.75;6.35;;;;;;;26.73;31.76;93435.63;5081796;28;20191;-70
2022/07/20 10:42:33;;;;;;;7.68;7.28;;;;;;;26.63;30.67;93428.19;5079748;28;20225;-70
2022/07/20 10:45:14;;;;;;;6.45;6.15;;;;;;;26.50;32.19;93415.28;5080768;28;20199;-70
2022/07/20 10:47:45;;;;;;;7.85;6.97;;;;;;;26.84;30.65;93413.56;5083159;28;20229;-70
2022/07/20 10:50:18;;;;;;;7.25;6.90;;;;;;;26.81;31.32;93411.59;5077658;28;20189;-70
2022/07/20 10:52:48;;;;;;;7.28;6.85;;;;;;;26.86;30.43;93405.94;5077783;28;20223;-70
2022/07/20 10:55:32;;;;;;;6.93;6.60;;;;;;;27.28;30.45;93411.97;5082418;28;20260;-70
2022/07/20 10:57:57;;;;;;;6.50;6.20;;;;;;;27.53;30.41;93410.38;5079874;28;20251;-70
2022/07/20 11:00:30;;;;;;;7.00;6.65;;;;;;;27.39;28.30;93394.88;5078294;28;20185;-70
2022/07/20 11:02:56;;;;;;;6.90;6.30;;;;;;;27.07;28.78;93404.34;5078512;28;20252;-69
2022/07/20 11:05:22;;;;;;;7.00;6.43;;;;;;;26.60;30.02;93396.72;5078736;28;20185;-70
2022/07/20 11:07:47;;;;;;;6.68;6.38;;;;;;;26.55;30.72;93405.03;5078314;28;20568;-70
2022/07/20 11:10:24;;;;;;;7.05;6.70;;;;;;;26.52;30.29;93396.97;5078133;28;20193;-72
2022/07/20 11:13:02;;;;;;;6.55;6.13;;;;;;;26.93;30.21;93392.66;5079392;28;20231;-70
2022/07/20 11:15:47;;;;;;;6.63;6.35;;;;;;;27.27;30.08;93391.66;5081983;28;20186;-71
2022/07/20 11:18:15;;;;;;;7.60;7.10;;;;;;;27.28;29.96;93380.56;5064028;28;20210;-71
2022/07/20 11:20:48;;;;;;;6.80;6.50;;;;;;;27.39;31.24;93388.75;5081185;28;20186;-70
2022/07/20 11:23:16;;;;;;;7.13;6.80;;;;;;;27.51;29.65;93383.91;5080456;28;20205;-70
2022/07/20 11:25:56;;;;;;;7.57;7.10;;;;;;;27.39;30.95;93383.38;5081615;28;20177;-71
2022/07/20 11:28:24;;;;;;;7.55;7.05;;;;;;;27.00;30.08;93353.31;5077797;28;20777;-71
2022/07/20 11:30:51;;;;;;;7.32;6.85;;;;;;;27.66;29.77;93369.53;5080906;28;20255;-70
2022/07/20 11:33:32;;;;;;;7.22;6.78;;;;;;;27.63;29.83;93372.94;5079601;28;20245;-69
2022/07/20 11:36:04;;;;;;;7.20;6.80;;;;;;;27.16;33.40;93374.59;5079675;28;20220;-70